Time;durP1;ratioP1;P1;durP2;ratioP2;P2;SDS_P1;SDS_P2;PMS_P1;PMS_P2;Temp;Humidity;BMP_temperature;BMP_pressure;BME280_temperature;BME280_humidity;BME280_pressure;Samples;Min_cycle;Max_cycle;Signal;HPM_P1;HPM_P2
2023/10/04 00:01:16;;;;;;;1999.90;999.90;;;13.00;99.90;;;;;;5054782;28;20029;-76
2023/10/04 00:03:43;;;;;;;1999.90;999.90;;;12.90;99.90;;;;;;5054550;28;20104;-75
2023/10/04 00:06:09;;;;;;;1999.90;999.90;;;12.90;99.90;;;;;;5047419;28;20025;-75
2023/10/04 00:08:35;;;;;;;1999.90;999.90;;;12.90;99.90;;;;;;5043718;28;20025;-75
2023/10/04 00:11:02;;;;;;;1999.90;999.90;;;12.90;99.90;;;;;;5038683;28;20041;-72
2023/10/04 00:13:28;;;;;;;1999.90;999.90;;;12.90;99.90;;;;;;5054686;28;20040;-76
2023/10/04 00:15:54;;;;;;;1999.90;999.90;;;12.90;99.90;;;;;;5052643;28;20021;-72
2023/10/04 00:18:19;;;;;;;1999.90;999.90;;;12.90;99.90;;;;;;5054526;28;20031;-75
2023/10/04 00:20:45;;;;;;;1999.90;999.90;;;12.80;99.90;;;;;;5054252;28;20498;-72
2023/10/04 00:23:13;;;;;;;1999.90;999.90;;;12.80;99.90;;;;;;5054386;28;20039;-72
2023/10/04 00:25:39;;;;;;;1999.90;999.90;;;12.80;99.90;;;;;;5048410;28;20095;-72
2023/10/04 00:28:04;;;;;;;1999.90;999.90;;;12.80;99.90;;;;;;5034483;28;20034;-76
2023/10/04 00:30:31;;;;;;;1999.90;999.90;;;12.70;99.90;;;;;;5034200;28;20032;-73
2023/10/04 00:32:58;;;;;;;1999.90;999.90;;;12.70;99.90;;;;;;5034314;28;20032;-72
2023/10/04 00:35:25;;;;;;;1999.90;999.90;;;12.70;99.90;;;;;;5034299;28;20018;-72
2023/10/04 00:37:55;;;;;;;1999.90;999.90;;;12.80;99.90;;;;;;5034039;28;20033;-72
2023/10/04 00:40:27;;;;;;;1999.90;999.90;;;12.80;99.90;;;;;;5038310;28;20021;-76
2023/10/04 00:42:55;;;;;;;1999.90;999.90;;;12.80;99.90;;;;;;5053942;28;20443;-76
2023/10/04 00:45:22;;;;;;;1999.90;999.90;;;12.70;99.90;;;;;;5054142;28;20036;-76
2023/10/04 00:47:51;;;;;;;1999.90;999.90;;;12.70;99.90;;;;;;5053958;28;20025;-72
2023/10/04 00:50:22;;;;;;;1999.90;999.90;;;12.60;99.90;;;;;;5054040;28;20498;-76
2023/10/04 00:52:59;;;;;;;1999.90;999.90;;;12.60;99.90;;;;;;5053811;28;20028;-76
2023/10/04 00:55:26;;;;;;;1999.90;999.90;;;12.60;99.90;;;;;;5053763;28;20021;-76
2023/10/04 00:57:54;;;;;;;1999.90;999.90;;;12.60;99.90;;;;;;5053616;28;20025;-72
2023/10/04 01:00:21;;;;;;;1999.90;999.90;;;12.50;99.90;;;;;;5053158;28;20476;-72
2023/10/04 01:02:47;;;;;;;1999.90;999.90;;;12.50;99.90;;;;;;5052440;28;20025;-76
2023/10/04 01:05:18;;;;;;;1999.90;999.90;;;12.40;99.90;;;;;;5050805;28;20029;-72
2023/10/04 01:07:48;;;;;;;1999.90;999.90;;;12.40;99.90;;;;;;5045081;28;20033;-72
2023/10/04 01:10:20;;;;;;;1999.90;999.90;;;12.40;99.90;;;;;;5033531;28;20033;-76
2023/10/04 01:12:47;;;;;;;1999.90;999.90;;;12.50;99.90;;;;;;5051342;28;20021;-72
2023/10/04 01:15:31;;;;;;;1999.90;999.90;;;12.40;99.90;;;;;;5053310;28;20259;-76
2023/10/04 01:17:58;;;;;;;1999.90;999.90;;;12.50;99.90;;;;;;5053253;28;20036;-76
2023/10/04 01:20:28;;;;;;;1999.90;999.90;;;12.50;99.90;;;;;;5053134;28;20033;-73
2023/10/04 01:23:00;;;;;;;1999.90;999.90;;;12.50;99.90;;;;;;5053306;28;20032;-76
2023/10/04 01:25:31;;;;;;;1999.90;999.90;;;12.40;99.90;;;;;;5048796;28;20037;-76
2023/10/04 01:27:56;;;;;;;1999.90;999.90;;;12.40;99.90;;;;;;5033338;28;20041;-72
2023/10/04 01:30:22;;;;;;;1999.90;999.90;;;12.50;99.90;;;;;;5040070;28;20078;-75
2023/10/04 01:32:51;;;;;;;1999.90;999.90;;;12.50;99.90;;;;;;5052998;28;20550;-76
2023/10/04 01:35:23;;;;;;;1999.90;999.90;;;12.50;99.90;;;;;;5053035;28;20024;-76
2023/10/04 01:37:53;;;;;;;1999.90;999.90;;;12.40;99.90;;;;;;5053094;28;20411;-72
2023/10/04 01:40:22;;;;;;;1999.90;999.90;;;12.30;99.90;;;;;;5052461;28;20095;-72
2023/10/04 01:42:48;;;;;;;1999.90;999.90;;;12.20;99.90;;;;;;5052874;28;20083;-75
2023/10/04 01:45:15;;;;;;;1999.90;999.90;;;12.20;99.90;;;;;;5052864;28;20399;-72
2023/10/04 01:47:41;;;;;;;1999.90;999.90;;;12.20;99.90;;;;;;5052772;28;20033;-75
2023/10/04 01:50:09;;;;;;;1999.90;999.90;;;12.10;99.90;;;;;;5052444;28;20395;-72
2023/10/04 01:52:36;;;;;;;1999.90;999.90;;;12.20;99.90;;;;;;5052993;28;20017;-72
2023/10/04 01:55:05;;;;;;;1999.90;999.90;;;12.10;99.90;;;;;;5052789;28;20107;-73
2023/10/04 01:57:33;;;;;;;1999.90;999.90;;;12.20;99.90;;;;;;5052774;28;20041;-75
2023/10/04 01:59:59;;;;;;;1999.90;999.90;;;12.20;99.90;;;;;;5052903;28;20111;-72
2023/10/04 02:02:24;;;;;;;1999.90;999.90;;;12.20;99.90;;;;;;5052879;28;20104;-76
2023/10/04 02:04:53;;;;;;;1999.90;999.90;;;12.20;99.90;;;;;;5052331;28;20436;-72
2023/10/04 02:07:21;;;;;;;1999.90;999.90;;;12.30;99.90;;;;;;5044636;28;20039;-72
2023/10/04 02:09:48;;;;;;;1999.90;999.90;;;12.30;99.90;;;;;;5033729;28;20022;-75
2023/10/04 02:12:13;;;;;;;1999.90;999.90;;;12.30;99.90;;;;;;5046362;28;20026;-76
2023/10/04 02:14:40;;;;;;;1999.90;999.90;;;12.30;99.90;;;;;;5052580;28;20017;-73
2023/10/04 02:17:08;;;;;;;1999.90;999.90;;;12.30;99.90;;;;;;5052426;28;20043;-72
2023/10/04 02:19:34;;;;;;;1999.90;999.90;;;12.30;99.90;;;;;;5052422;28;20064;-72
2023/10/04 02:22:00;;;;;;;1999.90;999.90;;;12.20;99.90;;;;;;5052336;28;20292;-75
2023/10/04 02:24:26;;;;;;;1999.90;999.90;;;12.10;99.90;;;;;;5052415;28;20067;-75
2023/10/04 02:26:52;;;;;;;1999.90;999.90;;;12.10;99.90;;;;;;5036430;28;20033;-76
2023/10/04 02:29:18;;;;;;;1999.90;999.90;;;12.00;99.90;;;;;;5032872;28;20061;-76
2023/10/04 02:31:44;;;;;;;1999.90;999.90;;;12.00;99.90;;;;;;5031221;28;20053;-72
2023/10/04 02:34:11;;;;;;;1999.90;999.90;;;12.00;99.90;;;;;;5032391;28;20033;-76
2023/10/04 02:36:37;;;;;;;1999.90;999.90;;;11.90;99.90;;;;;;5032741;28;20025;-75
2023/10/04 02:39:10;;;;;;;1999.90;999.90;;;11.90;99.90;;;;;;5032530;28;20116;-76
2023/10/04 02:41:36;;;;;;;1999.90;999.90;;;11.90;99.90;;;;;;5047617;28;20029;-72
2023/10/04 02:44:02;;;;;;;1999.90;999.90;;;11.90;99.90;;;;;;5052374;28;20032;-72
2023/10/04 02:46:28;;;;;;;1999.90;999.90;;;11.80;99.90;;;;;;5052271;28;20506;-75
2023/10/04 02:48:54;;;;;;;1999.90;999.90;;;11.80;99.90;;;;;;5052421;28;20052;-72
2023/10/04 02:51:20;;;;;;;1999.90;999.90;;;11.80;99.90;;;;;;5052125;28;20037;-75
2023/10/04 02:53:46;;;;;;;1999.90;999.90;;;11.70;99.90;;;;;;5055046;28;20481;-75
2023/10/04 02:56:11;;;;;;;1999.90;999.90;;;11.70;99.90;;;;;;5056010;28;20048;-73
2023/10/04 02:58:37;;;;;;;1999.90;999.90;;;11.60;99.90;;;;;;5055873;28;20600;-72
2023/10/04 03:01:03;;;;;;;1999.90;999.90;;;11.60;99.90;;;;;;5055930;28;20025;-75
2023/10/04 03:03:30;;;;;;;1999.90;999.90;;;11.50;99.90;;;;;;5056098;28;20032;-75
2023/10/04 03:05:56;;;;;;;1999.90;999.90;;;11.50;99.90;;;;;;5052084;28;20021;-75
2023/10/04 03:08:23;;;;;;;1999.90;999.90;;;11.50;99.90;;;;;;5044475;28;20032;-75
2023/10/04 03:10:54;;;;;;;1999.90;999.90;;;11.50;99.90;;;;;;5036039;28;20029;-72
2023/10/04 03:13:27;;;;;;;1999.90;999.90;;;11.40;99.90;;;;;;5036035;28;20100;-72
2023/10/04 03:15:53;;;;;;;1999.90;999.90;;;11.40;99.90;;;;;;5034553;28;20025;-76
2023/10/04 03:18:20;;;;;;;1999.90;999.90;;;11.40;99.90;;;;;;5035829;28;20034;-75
2023/10/04 03:21:10;;;;;;;1999.90;999.90;;;11.40;99.90;;;;;;5035656;28;20033;-75
2023/10/04 03:23:34;;;;;;;1999.90;999.90;;;11.40;99.90;;;;;;5035467;28;20439;-72
2023/10/04 03:26:02;;;;;;;1999.90;999.90;;;11.40;99.90;;;;;;5035079;28;20045;-72
2023/10/04 03:28:33;;;;;;;1999.90;999.90;;;11.40;99.90;;;;;;5035857;28;20092;-72
2023/10/04 03:31:04;;;;;;;1999.90;999.90;;;11.30;99.90;;;;;;5034159;28;20033;-72
2023/10/04 03:33:35;;;;;;;1999.90;999.90;;;11.30;99.90;;;;;;5035427;28;20410;-75
2023/10/04 03:36:04;;;;;;;1999.90;999.90;;;11.20;99.90;;;;;;5035251;28;20479;-72
2023/10/04 03:38:33;;;;;;;1999.90;999.90;;;11.20;99.90;;;;;;5035223;28;20030;-72
2023/10/04 03:41:00;;;;;;;1999.90;999.90;;;11.10;99.90;;;;;;5045245;28;20021;-75
2023/10/04 03:43:26;;;;;;;1999.90;999.90;;;11.10;99.90;;;;;;5055374;28;20047;-76
2023/10/04 03:45:51;;;;;;;1999.90;999.90;;;11.00;99.90;;;;;;5055180;28;20472;-75
2023/10/04 03:48:17;;;;;;;1999.90;999.90;;;11.00;99.90;;;;;;5055031;28;20032;-72
2023/10/04 03:50:48;;;;;;;1999.90;999.90;;;11.00;99.90;;;;;;5054902;28;20025;-72
2023/10/04 03:53:15;;;;;;;1999.90;999.90;;;11.00;99.90;;;;;;5054990;28;20021;-76
2023/10/04 03:55:46;;;;;;;1999.90;999.90;;;10.90;99.90;;;;;;5053658;28;20024;-75
2023/10/04 03:58:12;;;;;;;1999.90;999.90;;;10.90;99.90;;;;;;5054941;28;20396;-75
2023/10/04 04:00:39;;;;;;;1999.90;999.90;;;10.90;99.90;;;;;;5054784;28;20036;-76
2023/10/04 04:03:05;;;;;;;1999.90;999.90;;;11.00;99.90;;;;;;5054414;28;20104;-72
2023/10/04 04:05:32;;;;;;;1999.90;999.90;;;10.90;99.90;;;;;;5051284;28;20021;-72
2023/10/04 04:07:58;;;;;;;1999.90;999.90;;;10.90;99.90;;;;;;5046016;28;20063;-76
2023/10/04 04:10:24;;;;;;;1999.90;999.90;;;10.90;99.90;;;;;;5035050;28;20428;-76
2023/10/04 04:12:50;;;;;;;1999.90;999.90;;;10.90;99.90;;;;;;5053214;28;20021;-76
2023/10/04 04:15:17;;;;;;;1999.90;999.90;;;11.00;99.90;;;;;;5054414;28;20025;-72
2023/10/04 04:17:45;;;;;;;1999.90;999.90;;;10.90;99.90;;;;;;5054529;28;20029;-75
2023/10/04 04:20:14;;;;;;;1999.90;999.90;;;10.90;99.90;;;;;;5054651;28;20048;-76
2023/10/04 04:22:43;;;;;;;1999.90;999.90;;;10.80;99.90;;;;;;5054378;28;20535;-76
2023/10/04 04:25:15;;;;;;;1999.90;999.90;;;10.80;99.90;;;;;;5052305;28;20534;-75
2023/10/04 04:27:44;;;;;;;1999.90;999.90;;;10.80;99.90;;;;;;5034771;28;20021;-72
2023/10/04 04:30:16;;;;;;;1999.90;999.90;;;10.90;99.90;;;;;;5034523;28;20032;-72
2023/10/04 04:32:44;;;;;;;1999.90;999.90;;;10.90;99.90;;;;;;5045386;28;20086;-76
2023/10/04 04:35:14;;;;;;;1999.90;999.90;;;10.90;99.90;;;;;;5034553;28;20030;-75
2023/10/04 04:37:40;;;;;;;1999.90;999.90;;;10.90;99.90;;;;;;5034208;28;20036;-76
2023/10/04 04:40:09;;;;;;;1999.90;999.90;;;10.90;99.90;;;;;;5036872;28;20032;-72
2023/10/04 04:42:43;;;;;;;1999.90;999.90;;;10.80;99.90;;;;;;5054281;28;20048;-72
2023/10/04 04:45:25;;;;;;;1999.90;999.90;;;10.80;99.90;;;;;;5053957;28;20037;-75
2023/10/04 04:47:51;;;;;;;1999.90;999.90;;;10.80;99.90;;;;;;5045937;28;20027;-76
2023/10/04 04:50:17;;;;;;;1999.90;999.90;;;10.80;99.90;;;;;;5033367;28;20124;-72
2023/10/04 04:52:44;;;;;;;1999.90;999.90;;;10.70;99.90;;;;;;5034015;28;20013;-72
2023/10/04 04:55:11;;;;;;;1999.90;999.90;;;10.70;99.90;;;;;;5034306;28;20025;-72
2023/10/04 04:57:38;;;;;;;1999.90;999.90;;;10.60;99.90;;;;;;5033817;28;20021;-72
2023/10/04 05:00:30;;;;;;;1999.90;999.90;;;10.60;99.90;;;;;;5044927;28;20415;-72
2023/10/04 05:02:50;;;;;;;1999.90;999.90;;;10.60;99.90;;;;;;5053300;28;20035;-75
2023/10/04 05:05:16;;;;;;;1999.90;999.90;;;10.50;99.90;;;;;;5053462;28;20028;-75
2023/10/04 05:07:43;;;;;;;1999.90;999.90;;;10.50;99.90;;;;;;5046113;28;20029;-72
2023/10/04 05:10:11;;;;;;;1999.90;999.90;;;10.50;99.90;;;;;;5033411;28;20427;-72
2023/10/04 05:12:37;;;;;;;1999.90;999.90;;;10.50;99.90;;;;;;5048032;28;20078;-75
2023/10/04 05:15:18;;;;;;;1999.90;999.90;;;10.60;99.90;;;;;;5044911;28;20025;-75
2023/10/04 05:17:44;;;;;;;1999.90;999.90;;;10.60;99.90;;;;;;5033133;28;20566;-75
2023/10/04 05:20:14;;;;;;;1999.90;999.90;;;10.50;99.90;;;;;;5032881;28;20061;-75
2023/10/04 05:22:43;;;;;;;1999.90;999.90;;;10.50;99.90;;;;;;5032196;28;20479;-72
2023/10/04 05:25:09;;;;;;;1999.90;999.90;;;10.60;99.90;;;;;;5031138;28;20045;-75
2023/10/04 05:27:36;;;;;;;1999.90;999.90;;;10.60;99.90;;;;;;5034218;28;20064;-75
2023/10/04 05:30:03;;;;;;;1999.90;999.90;;;10.60;99.90;;;;;;5052547;28;20549;-72
2023/10/04 05:32:29;;;;;;;1999.90;999.90;;;10.70;99.90;;;;;;5051456;28;20021;-72
2023/10/04 05:34:55;;;;;;;1999.90;999.90;;;10.70;99.90;;;;;;5052023;28;20176;-72
2023/10/04 05:37:21;;;;;;;1999.90;999.90;;;10.70;99.90;;;;;;5051108;28;20460;-76
2023/10/04 05:39:46;;;;;;;1999.90;999.90;;;10.70;99.90;;;;;;5047819;28;20033;-75
2023/10/04 05:42:12;;;;;;;1999.90;999.90;;;10.70;99.90;;;;;;5051688;28;20404;-75
2023/10/04 05:44:38;;;;;;;1999.90;999.90;;;10.70;99.90;;;;;;5051815;28;20044;-76
2023/10/04 05:47:05;;;;;;;1999.90;999.90;;;10.70;99.90;;;;;;5051784;28;20468;-72
2023/10/04 05:49:31;;;;;;;1999.90;999.90;;;10.80;99.90;;;;;;5052042;28;20027;-76
2023/10/04 05:51:58;;;;;;;1999.90;999.90;;;10.80;99.90;;;;;;5050802;28;20078;-76
2023/10/04 05:54:23;;;;;;;1999.90;999.90;;;10.80;99.90;;;;;;5051379;28;20036;-75
2023/10/04 05:56:49;;;;;;;1999.90;999.90;;;10.80;99.90;;;;;;5051763;28;20036;-76
2023/10/04 05:59:14;;;;;;;1999.90;999.90;;;10.90;99.90;;;;;;5051921;28;20407;-73
2023/10/04 06:01:41;;;;;;;1999.90;999.90;;;11.00;99.90;;;;;;5047952;28;20488;-73
2023/10/04 06:04:07;;;;;;;1999.90;999.90;;;11.00;99.90;;;;;;5051416;28;20098;-76
2023/10/04 06:06:33;;;;;;;1999.90;999.90;;;11.10;99.90;;;;;;5042476;28;20442;-73
2023/10/04 06:08:59;;;;;;;1999.90;999.90;;;11.20;99.90;;;;;;5034211;28;20026;-76
2023/10/04 06:11:25;;;;;;;1999.90;999.90;;;11.30;99.90;;;;;;5049125;28;20104;-73
2023/10/04 06:13:50;;;;;;;1999.90;999.90;;;11.30;99.90;;;;;;5050070;28;20579;-73
2023/10/04 06:16:20;;;;;;;1999.90;999.90;;;11.30;99.90;;;;;;5049991;28;20108;-72
2023/10/04 06:18:48;;;;;;;1999.90;999.90;;;11.30;99.90;;;;;;5050683;28;20048;-73
2023/10/04 06:21:16;;;;;;;1999.90;999.90;;;11.40;99.90;;;;;;5046505;28;20515;-76
2023/10/04 06:23:43;;;;;;;1999.90;999.90;;;11.40;99.90;;;;;;5048509;28;20025;-76
2023/10/04 06:26:09;;;;;;;1999.90;999.90;;;11.50;99.90;;;;;;5045994;28;20041;-73
2023/10/04 06:28:35;;;;;;;1999.90;999.90;;;11.60;99.90;;;;;;5052421;28;20106;-73
2023/10/04 06:31:04;;;;;;;1999.90;999.90;;;11.60;99.90;;;;;;5052744;28;20072;-76
2023/10/04 06:33:30;;;;;;;1999.90;999.90;;;11.70;99.90;;;;;;5051661;28;20029;-73
2023/10/04 06:35:56;;;;;;;1999.90;999.90;;;11.80;99.90;;;;;;5053689;28;20032;-76
2023/10/04 06:38:22;;;;;;;1999.90;999.90;;;11.80;99.90;;;;;;5054078;28;20029;-73
2023/10/04 06:40:47;;;;;;;1999.90;999.90;;;11.90;99.90;;;;;;5053448;28;20029;-73
2023/10/04 06:43:14;;;;;;;1999.90;999.90;;;11.90;99.90;;;;;;5054170;28;20032;-76
2023/10/04 06:45:41;;;;;;;1999.90;999.90;;;11.90;99.90;;;;;;5053390;28;20032;-73
2023/10/04 06:48:07;;;;;;;1999.90;999.90;;;12.00;99.90;;;;;;5053517;28;20395;-76
2023/10/04 06:50:42;;;;;;;1999.90;999.90;;;12.10;99.90;;;;;;5052534;28;20029;-73
2023/10/04 06:53:12;;;;;;;1999.90;999.90;;;12.10;99.90;;;;;;5050761;28;20109;-73
2023/10/04 06:55:38;;;;;;;1999.90;999.90;;;12.20;99.90;;;;;;5049868;28;20036;-73
2023/10/04 06:58:04;;;;;;;1999.90;999.90;;;12.30;99.90;;;;;;5051161;28;20021;-76
2023/10/04 07:00:30;;;;;;;1999.90;999.90;;;12.30;99.90;;;;;;5047696;28;20045;-76
2023/10/04 07:03:01;;;;;;;1999.90;999.90;;;12.50;99.90;;;;;;5050805;28;20036;-76
2023/10/04 07:05:32;;;;;;;1999.90;999.90;;;12.50;99.90;;;;;;5046006;28;20040;-73
2023/10/04 07:07:58;;;;;;;1999.90;999.90;;;12.60;99.90;;;;;;5049046;28;20056;-76
2023/10/04 07:10:26;;;;;;;1999.90;999.90;;;12.70;99.90;;;;;;5052638;28;20108;-76
2023/10/04 07:12:52;;;;;;;1999.90;999.90;;;12.80;99.90;;;;;;5050129;28;20021;-76
2023/10/04 07:15:19;;;;;;;1999.90;999.90;;;12.90;99.90;;;;;;5049793;28;20040;-76
2023/10/04 07:17:47;;;;;;;1999.90;999.90;;;13.00;99.90;;;;;;5051646;28;20021;-73
2023/10/04 07:20:15;;;;;;;1999.90;999.90;;;13.20;99.90;;;;;;5046121;28;20028;-76
2023/10/04 07:22:47;;;;;;;1999.90;999.90;;;13.40;99.90;;;;;;5051421;28;20035;-76
2023/10/04 07:25:14;;;;;;;1999.90;999.90;;;13.50;99.90;;;;;;5048725;28;20052;-77
2023/10/04 07:27:45;;;;;;;1999.90;999.90;;;13.70;99.90;;;;;;5047907;28;20064;-76
2023/10/04 07:30:15;;;;;;;1999.90;999.90;;;13.90;99.90;;;;;;5050397;28;20033;-73
2023/10/04 07:32:42;;;;;;;1999.90;999.90;;;14.00;99.90;;;;;;5051636;28;20426;-74
2023/10/04 07:35:11;;;;;;;1999.90;999.90;;;14.30;99.90;;;;;;5052218;28;20053;-74
2023/10/04 07:37:37;;;;;;;1999.90;999.90;;;14.40;99.90;;;;;;5052328;28;20112;-75
2023/10/04 07:40:09;;;;;;;1999.90;999.90;;;14.60;99.90;;;;;;5051296;28;20132;-76
2023/10/04 07:42:38;;;;;;;1999.90;999.90;;;14.60;99.90;;;;;;5045395;28;20033;-74
2023/10/04 07:45:05;;;;;;;1999.90;999.90;;;14.70;99.90;;;;;;5051892;28;20072;-76
2023/10/04 07:47:32;;;;;;;1999.90;999.90;;;14.80;99.90;;;;;;5045160;28;20033;-78
2023/10/04 07:49:58;;;;;;;1999.90;999.90;;;14.90;99.90;;;;;;5049900;28;20188;-74
2023/10/04 07:52:24;;;;;;;1999.90;999.90;;;15.00;99.90;;;;;;5050131;28;20791;-76
2023/10/04 07:54:53;;;;;;;1999.90;999.90;;;15.00;99.90;;;;;;5048472;28;20484;-74
2023/10/04 07:57:19;;;;;;;1999.90;999.90;;;14.90;99.90;;;;;;5049368;28;20462;-73
2023/10/04 07:59:44;;;;;;;1999.90;999.90;;;14.80;99.90;;;;;;5050867;28;20045;-76
2023/10/04 08:02:11;;;;;;;1999.90;999.90;;;14.80;99.90;;;;;;5051686;28;20036;-75
2023/10/04 08:04:36;;;;;;;1999.90;999.90;;;14.80;99.90;;;;;;5047198;28;20033;-74
2023/10/04 08:07:02;;;;;;;1999.90;999.90;;;15.00;99.90;;;;;;5050654;28;20035;-75
2023/10/04 08:09:28;;;;;;;1999.90;999.90;;;15.30;99.90;;;;;;5051537;28;20518;-73
2023/10/04 08:11:53;;;;;;;1999.90;999.90;;;15.70;99.90;;;;;;5050481;28;20033;-74
2023/10/04 08:14:21;;;;;;;1999.90;999.90;;;16.30;99.90;;;;;;5051296;28;20021;-73
2023/10/04 08:16:49;;;;;;;1999.90;999.90;;;16.40;99.90;;;;;;5052075;28;20032;-75
2023/10/04 08:19:15;;;;;;;1999.90;999.90;;;16.60;99.90;;;;;;5051103;28;20027;-75
2023/10/04 08:21:41;;;;;;;1999.90;999.90;;;17.20;99.90;;;;;;5049968;28;20517;-74
2023/10/04 08:24:07;;;;;;;1999.90;999.90;;;18.80;99.90;;;;;;5049347;28;20029;-74
2023/10/04 08:26:33;;;;;;;1999.90;999.90;;;19.90;99.90;;;;;;5036967;28;20053;-73
2023/10/04 08:28:59;;;;;;;1999.90;999.90;;;19.30;99.90;;;;;;5042889;28;20044;-75
2023/10/04 08:31:25;;;;;;;1999.90;999.90;;;19.00;99.90;;;;;;5047566;28;20017;-73
2023/10/04 08:33:51;;;;;;;1999.90;999.90;;;19.50;99.90;;;;;;5036477;28;20032;-73
2023/10/04 08:36:17;;;;;;;1999.90;999.90;;;20.00;99.90;;;;;;5041221;28;20024;-73
2023/10/04 08:38:45;;;;;;;1999.90;999.90;;;20.60;99.90;;;;;;5042956;28;20037;-73
2023/10/04 08:41:12;;;;;;;1999.90;999.90;;;20.90;99.90;;;;;;5046046;28;20016;-73
2023/10/04 08:43:38;;;;;;;1999.90;999.90;;;21.70;99.90;;;;;;5047877;28;20059;-76
2023/10/04 08:46:07;;;;;;;1999.90;999.90;;;23.20;99.90;;;;;;5049681;28;20098;-76
2023/10/04 08:48:33;;;;;;;1999.90;999.90;;;24.30;99.90;;;;;;5039338;28;20080;-74
2023/10/04 08:51:03;;;;;;;1999.90;999.90;;;24.80;99.90;;;;;;5048925;28;20036;-74
2023/10/04 08:53:44;;;;;;;1999.90;999.90;;;24.90;99.90;;;;;;5047321;28;20075;-74
2023/10/04 08:56:14;;;;;;;1999.90;999.90;;;24.00;99.90;;;;;;5039575;28;20025;-76
2023/10/04 08:58:40;;;;;;;1999.90;999.90;;;23.50;99.90;;;;;;5049401;28;20029;-73
2023/10/04 09:01:07;;;;;;;1999.90;999.90;;;22.90;99.90;;;;;;5048928;28;20032;-73
2023/10/04 09:03:35;;;;;;;1999.90;999.90;;;23.10;99.90;;;;;;5044322;28;20033;-73
2023/10/04 09:06:04;;;;;;;1999.90;999.90;;;23.00;99.90;;;;;;5050370;28;20070;-76
2023/10/04 09:08:31;;;;;;;1999.90;999.90;;;23.60;99.90;;;;;;5048303;28;20101;-76
2023/10/04 09:10:58;;;;;;;1999.90;999.90;;;24.10;99.90;;;;;;5050264;28;20021;-75
2023/10/04 09:13:24;;;;;;;1999.90;999.90;;;24.30;99.90;;;;;;5043191;28;20039;-73
2023/10/04 09:15:50;;;;;;;1999.90;999.90;;;24.60;99.90;;;;;;5042721;28;20029;-75
2023/10/04 09:18:28;;;;;;;1999.90;999.90;;;24.10;99.90;;;;;;5050640;28;20392;-76
2023/10/04 09:20:54;;;;;;;1999.90;999.90;;;23.50;99.90;;;;;;5045493;28;20373;-74
2023/10/04 09:23:22;;;;;;;1999.90;999.90;;;22.60;99.90;;;;;;5045222;28;20525;-74
2023/10/04 09:25:48;;;;;;;1999.90;999.90;;;22.30;99.90;;;;;;5043356;28;20037;-76
2023/10/04 09:28:14;;;;;;;1999.90;999.90;;;21.80;99.90;;;;;;5046401;28;20029;-73
2023/10/04 09:30:39;;;;;;;1999.90;999.90;;;21.20;99.90;;;;;;5046963;28;20499;-74
2023/10/04 09:33:20;;;;;;;1999.90;999.90;;;21.20;99.90;;;;;;5047184;28;20036;-73
2023/10/04 09:35:45;;;;;;;1999.90;999.90;;;21.00;99.90;;;;;;5043583;28;20049;-73
2023/10/04 09:38:20;;;;;;;1999.90;999.90;;;20.90;99.90;;;;;;5044906;28;20068;-75
2023/10/04 09:40:53;;;;;;;1999.90;999.90;;;20.90;99.90;;;;;;5046180;28;20409;-74
2023/10/04 09:43:35;;;;;;;1999.90;999.90;;;20.70;99.90;;;;;;5046735;28;20395;-73
2023/10/04 09:46:02;;;;;;;1999.90;999.90;;;20.30;99.90;;;;;;5043646;28;20033;-76
2023/10/04 09:48:33;;;;;;;1999.90;999.90;;;20.60;99.90;;;;;;5045733;28;20457;-76
2023/10/04 09:51:05;;;;;;;1999.90;999.90;;;20.70;99.90;;;;;;5045888;28;20029;-75
2023/10/04 09:53:43;;;;;;;1999.90;999.90;;;21.00;99.90;;;;;;5047449;28;20028;-75
2023/10/04 09:56:11;;;;;;;1999.90;999.90;;;20.90;99.90;;;;;;5045301;28;20099;-74
2023/10/04 09:58:48;;;;;;;1999.90;999.90;;;21.00;99.90;;;;;;5044680;28;20861;-75
2023/10/04 10:01:15;;;;;;;1999.90;999.90;;;20.90;99.90;;;;;;5048502;28;20052;-75
2023/10/04 10:03:50;;;;;;;1999.90;999.90;;;20.90;99.90;;;;;;5049496;28;20032;-75
2023/10/04 10:06:21;;;;;;;1999.90;999.90;;;21.20;99.90;;;;;;5049187;28;20031;-75
2023/10/04 10:08:52;;;;;;;1999.90;999.90;;;21.20;99.90;;;;;;5049517;28;20151;-75
2023/10/04 10:11:18;;;;;;;1999.90;999.90;;;21.10;99.90;;;;;;5049744;28;20515;-75
2023/10/04 10:13:45;;;;;;;1999.90;999.90;;;21.20;99.90;;;;;;5048772;28;20029;-74
2023/10/04 10:16:12;;;;;;;1999.90;999.90;;;21.20;99.90;;;;;;5043812;28;20025;-73
2023/10/04 10:18:39;;;;;;;1999.90;999.90;;;21.10;99.90;;;;;;5048922;28;20036;-74
2023/10/04 10:21:08;;;;;;;1999.90;999.90;;;21.20;99.90;;;;;;5047811;28;20135;-74
2023/10/04 10:23:57;;;;;;;1999.90;999.90;;;21.30;99.90;;;;;;5048258;28;20041;-75
2023/10/04 10:26:23;;;;;;;1999.90;999.90;;;21.40;99.90;;;;;;5035920;28;20135;-74
2023/10/04 10:28:58;;;;;;;1999.90;999.90;;;21.30;99.90;;;;;;5046335;28;20056;-75
2023/10/04 10:31:26;;;;;;;1999.90;999.90;;;21.20;99.90;;;;;;5048144;28;20040;-74
2023/10/04 10:33:55;;;;;;;1999.90;999.90;;;21.10;99.90;;;;;;5048588;28;20025;-74
2023/10/04 10:36:22;;;;;;;1999.90;999.90;;;21.20;99.90;;;;;;5048276;28;20021;-75
2023/10/04 10:38:50;;;;;;;1999.90;999.90;;;21.20;99.90;;;;;;5046005;28;20174;-75
2023/10/04 10:41:49;;;;;;;1999.90;999.90;;;21.10;99.90;;;;;;5048338;28;20027;-75
2023/10/04 10:44:17;;;;;;;1999.90;999.90;;;21.20;99.90;;;;;;5027912;28;20033;-75
2023/10/04 10:47:01;;;;;;;1999.90;999.90;;;21.30;99.90;;;;;;5048296;28;20028;-74
2023/10/04 10:49:50;;;;;;;1999.90;999.90;;;21.50;99.90;;;;;;5040021;28;20087;-75
2023/10/04 10:52:38;;;;;;;1999.90;999.90;;;21.40;99.90;;;;;;5046385;28;20057;-76
2023/10/04 10:55:06;;;;;;;1999.90;999.90;;;21.50;99.90;;;;;;5047884;28;20033;-75
2023/10/04 10:57:36;;;;;;;1999.90;999.90;;;21.50;99.90;;;;;;5046945;28;20435;-74
2023/10/04 11:00:12;;;;;;;1999.90;999.90;;;21.50;99.90;;;;;;5044536;28;20437;-74
2023/10/04 11:02:38;;;;;;;1999.90;999.90;;;21.70;99.90;;;;;;5048215;28;20061;-76
2023/10/04 11:05:09;;;;;;;1999.90;999.90;;;21.80;99.90;;;;;;5047900;28;20029;-75
2023/10/04 11:07:36;;;;;;;1999.90;999.90;;;21.80;99.90;;;;;;5047834;28;20025;-76
2023/10/04 11:10:04;;;;;;;1999.90;999.90;;;21.80;99.90;;;;;;5047652;28;20099;-74
2023/10/04 11:12:37;;;;;;;1999.90;999.90;;;21.80;99.90;;;;;;5048109;28;20027;-74
2023/10/04 11:15:06;;;;;;;1999.90;999.90;;;21.60;99.90;;;;;;5050498;28;20086;-76
2023/10/04 11:17:33;;;;;;;1999.90;999.90;;;21.70;99.90;;;;;;5041661;28;20028;-76
2023/10/04 11:19:58;;;;;;;1999.90;999.90;;;21.70;99.90;;;;;;5034501;28;20116;-75
2023/10/04 11:22:25;;;;;;;1999.90;999.90;;;21.70;99.90;;;;;;5041160;28;20029;-75
2023/10/04 11:24:51;;;;;;;1999.90;999.90;;;21.70;99.90;;;;;;5048877;28;20044;-74
2023/10/04 11:27:22;;;;;;;1999.90;999.90;;;21.80;99.90;;;;;;5050128;28;20052;-75
2023/10/04 11:29:49;;;;;;;1999.90;999.90;;;22.00;99.90;;;;;;5051323;28;20378;-76
2023/10/04 11:32:15;;;;;;;1999.90;999.90;;;21.90;99.90;;;;;;5047566;28;20083;-76
2023/10/04 11:34:44;;;;;;;1999.90;999.90;;;22.10;99.90;;;;;;5050812;28;20036;-76
2023/10/04 11:37:10;;;;;;;1999.90;999.90;;;22.10;99.90;;;;;;5052833;28;20060;-73
2023/10/04 11:39:37;;;;;;;1999.90;999.90;;;21.90;99.90;;;;;;5051818;28;20036;-74
2023/10/04 11:42:14;;;;;;;1999.90;999.90;;;22.00;99.90;;;;;;5045356;28;20033;-75
2023/10/04 11:44:42;;;;;;;1999.90;999.90;;;22.20;99.90;;;;;;5050901;28;20032;-75
2023/10/04 11:47:10;;;;;;;1999.90;999.90;;;22.20;99.90;;;;;;5049676;28;20522;-76
2023/10/04 11:49:38;;;;;;;1999.90;999.90;;;22.10;99.90;;;;;;5048111;28;20399;-74
2023/10/04 11:52:07;;;;;;;1999.90;999.90;;;22.00;99.90;;;;;;5050144;28;20061;-73
2023/10/04 11:54:45;;;;;;;1999.90;999.90;;;21.90;99.90;;;;;;5051536;28;20024;-75
2023/10/04 11:57:11;;;;;;;1999.90;999.90;;;22.10;99.90;;;;;;5051345;28;20033;-75
2023/10/04 11:59:39;;;;;;;1999.90;999.90;;;22.40;99.90;;;;;;5049850;28;20032;-75
2023/10/04 12:02:06;;;;;;;1999.90;999.90;;;22.60;99.90;;;;;;5051276;28;20021;-73
2023/10/04 12:04:32;;;;;;;1999.90;999.90;;;22.50;99.90;;;;;;5051471;28;20033;-74